Terminal Aerodrome Forecast
Issued by NWS Cleveland, OH

Home | Current Version | Previous Version | Graphics & Text | Print | Product List | Glossary On
Versions: 1 2 3 4 5 6 7 8 9 10 11 12 13 14 15 16
000
FTUS41 KCLE 161739
TAFMFD
TAF
KMFD 161739Z 1618/1718 10005KT P6SM SCT050
     FM170500 14004KT P6SM BKN150
     FM171000 15005KT 5SM BR BKN100
     FM171300 17006KT P6SM -SHRA SCT040 OVC070 PROB30 1713/1715 5SM
      SHRA BR BKN030
     FM171600 18007KT P6SM VCSH BKN070=

USA.gov is the U.S. government's official web portal to all federal, state and local government web resources and services.